createdAt,value
2022-10-17T00:00:23.089Z,502.75
2022-10-17T00:03:11.474Z,479.80
2022-10-17T00:05:59.388Z,477.50
2022-10-17T00:08:48.703Z,513.03
2022-10-17T00:11:36.924Z,473.73
2022-10-17T00:14:24.860Z,495.45
2022-10-17T00:17:12.898Z,496.08
2022-10-17T00:20:01.846Z,504.77
2022-10-17T00:22:49.883Z,481.63
2022-10-17T00:25:40.512Z,500.63
2022-10-17T00:28:29.011Z,482.38
2022-10-17T00:31:19.166Z,468.83
2022-10-17T00:34:07.055Z,493.95
2022-10-17T00:36:54.956Z,498.85
2022-10-17T00:39:42.880Z,519.58
2022-10-17T00:42:32.101Z,490.80
2022-10-17T00:45:24.617Z,508.35
2022-10-17T00:48:13.799Z,485.60
2022-10-17T00:51:01.759Z,493.58
2022-10-17T00:53:51.739Z,482.45
2022-10-17T00:56:40.661Z,496.83
2022-10-17T00:59:31.334Z,485.00
2022-10-17T01:02:21.607Z,497.15
2022-10-17T01:05:10.961Z,482.17
2022-10-17T01:07:59.039Z,500.92
2022-10-17T01:11:02.127Z,496.98
2022-10-17T01:13:59.628Z,476.80
2022-10-17T01:16:55.150Z,470.83
2022-10-17T01:20:00.307Z,473.52
2022-10-17T01:22:53.132Z,469.83
2022-10-17T01:25:54.299Z,488.90
2022-10-17T01:29:06.843Z,479.80
2022-10-17T01:32:00.953Z,457.92
2022-10-17T01:34:59.216Z,486.33
2022-10-17T01:40:50.559Z,483.10
2022-10-17T01:43:42.964Z,483.50
2022-10-17T01:46:36.426Z,474.55
2022-10-17T01:49:29.322Z,465.13
2022-10-17T01:52:21.702Z,468.02
2022-10-17T01:55:15.024Z,484.13
2022-10-17T01:58:08.758Z,462.80
2022-10-17T02:00:59.445Z,477.58
2022-10-17T02:03:52.044Z,491.35
2022-10-17T02:06:41.333Z,472.95
2022-10-17T02:09:32.568Z,480.65
2022-10-17T02:12:43.139Z,476.83
2022-10-17T02:16:01.803Z,493.00
2022-10-17T02:19:08.198Z,457.75
2022-10-17T02:22:07.848Z,483.73
2022-10-17T02:25:03.832Z,487.67
2022-10-17T02:27:55.837Z,481.45
2022-10-17T02:30:48.022Z,498.17
2022-10-17T02:33:39.964Z,478.13
2022-10-17T02:36:31.852Z,489.95
2022-10-17T02:39:23.282Z,467.05
2022-10-17T02:42:13.942Z,449.83
2022-10-17T02:45:03.593Z,468.38
2022-10-17T02:47:58.796Z,447.02
2022-10-17T02:50:58.821Z,472.10
2022-10-17T02:53:56.208Z,468.67
2022-10-17T02:56:51.432Z,459.63
2022-10-17T02:59:42.058Z,460.52
2022-10-17T03:02:30.422Z,511.83
2022-10-17T03:05:21.444Z,486.00
2022-10-17T03:08:09.393Z,458.10
2022-10-17T03:10:57.374Z,502.33
2022-10-17T03:13:49.062Z,494.33
2022-10-17T03:16:38.099Z,487.02
2022-10-17T03:19:26.493Z,487.67
2022-10-17T03:22:14.908Z,499.95
2022-10-17T03:25:06.716Z,496.15
2022-10-17T03:27:59.166Z,477.88
2022-10-17T03:30:48.693Z,466.48
2022-10-17T03:33:37.796Z,473.40
2022-10-17T03:36:25.831Z,492.88
2022-10-17T03:39:15.461Z,492.38
2022-10-17T03:42:03.643Z,490.85
2022-10-17T03:44:51.600Z,488.58
2022-10-17T03:47:40.895Z,516.80
2022-10-17T03:50:28.946Z,495.27
2022-10-17T03:53:18.063Z,481.50
2022-10-17T03:56:15.276Z,485.63
2022-10-17T03:59:04.118Z,469.10
2022-10-17T04:01:54.876Z,476.23
2022-10-17T04:04:44.810Z,481.10
2022-10-17T04:07:32.896Z,477.33
2022-10-17T04:10:21.868Z,478.58
2022-10-17T04:13:10.290Z,474.08
2022-10-17T04:16:00.344Z,472.15
2022-10-17T04:18:48.358Z,476.77
2022-10-17T04:21:37.789Z,482.48
2022-10-17T04:24:28.855Z,513.65
2022-10-17T04:27:26.744Z,482.00
2022-10-17T04:30:15.957Z,493.65
2022-10-17T04:33:05.547Z,475.98
2022-10-17T04:35:58.401Z,487.85
2022-10-17T04:38:48.045Z,492.58
2022-10-17T04:41:36.037Z,485.77
2022-10-17T04:44:33.995Z,478.77
2022-10-17T04:47:22.382Z,484.52
2022-10-17T04:50:10.661Z,493.70
2022-10-17T04:53:00.616Z,490.50
2022-10-17T04:55:49.977Z,472.02
2022-10-17T04:58:38.195Z,483.77
2022-10-17T05:01:27.617Z,458.83
2022-10-17T05:04:15.549Z,485.67
2022-10-17T05:07:04.455Z,469.75
2022-10-17T05:10:04.632Z,498.63
2022-10-17T05:12:55.669Z,462.60
2022-10-17T05:15:47.528Z,497.27
2022-10-17T05:18:37.499Z,472.30
2022-10-17T05:21:27.722Z,468.85
2022-10-17T05:24:16.406Z,461.15
2022-10-17T05:27:05.016Z,458.23
2022-10-17T05:29:54.548Z,465.00
2022-10-17T05:32:48.976Z,454.52
2022-10-17T05:35:37.609Z,457.80
2022-10-17T05:38:27.305Z,452.42
2022-10-17T05:41:16.101Z,452.70
2022-10-17T05:44:05.633Z,464.08
2022-10-17T05:47:04.433Z,443.13
2022-10-17T05:49:52.874Z,470.08
2022-10-17T05:52:54.720Z,413.25
2022-10-17T05:55:44.136Z,447.83
2022-10-17T05:58:49.244Z,471.15
2022-10-17T06:02:10.370Z,448.75
2022-10-17T06:04:38.077Z,438.50
2022-10-17T06:07:06.420Z,456.65
2022-10-17T06:09:36.606Z,464.05
2022-10-17T06:12:04.692Z,490.02
2022-10-17T06:14:32.927Z,460.23
2022-10-17T06:17:03.278Z,472.80
2022-10-17T06:19:32.488Z,458.10
2022-10-17T06:22:00.185Z,466.38
2022-10-17T06:24:29.406Z,422.83
2022-10-17T06:26:58.021Z,460.83
2022-10-17T06:29:25.735Z,472.38
2022-10-17T06:31:53.959Z,487.40
2022-10-17T06:34:21.843Z,485.52
2022-10-17T06:36:51.089Z,457.70
2022-10-17T06:39:20.297Z,455.98
2022-10-17T06:42:05.948Z,456.20
2022-10-17T06:44:56.301Z,456.25
2022-10-17T06:47:38.510Z,457.52
2022-10-17T06:50:23.462Z,472.95
2022-10-17T06:53:10.943Z,472.27
2022-10-17T06:56:02.792Z,486.00
2022-10-17T06:58:46.965Z,458.88
2022-10-17T07:01:24.807Z,471.52
2022-10-17T07:03:56.877Z,481.45
2022-10-17T07:06:25.106Z,463.83
2022-10-17T07:08:56.530Z,487.60
2022-10-17T07:11:25.822Z,522.90
2022-10-17T07:13:53.822Z,483.42
2022-10-17T07:16:22.837Z,487.17
2022-10-17T07:19:02.867Z,488.95
2022-10-17T07:21:38.987Z,479.83
2022-10-17T07:24:09.613Z,473.85
2022-10-17T07:26:37.596Z,458.80
2022-10-17T07:29:06.352Z,470.02
2022-10-17T07:31:40.807Z,442.83
2022-10-17T07:34:08.590Z,448.35
2022-10-17T07:36:36.505Z,465.02
2022-10-17T07:39:06.287Z,457.23
2022-10-17T07:41:37.803Z,460.10
2022-10-17T07:44:06.154Z,468.52
2022-10-17T07:46:38.426Z,472.63
2022-10-17T07:49:06.707Z,473.02
2022-10-17T07:51:34.891Z,480.90
2022-10-17T07:54:02.666Z,466.60
2022-10-17T07:56:30.362Z,474.48
2022-10-17T07:59:00.807Z,490.80
2022-10-17T08:01:31.346Z,499.48
2022-10-17T08:03:58.933Z,484.25
2022-10-17T08:06:26.546Z,496.40
2022-10-17T08:08:54.170Z,506.85
2022-10-17T08:11:23.192Z,481.92
2022-10-17T08:13:50.834Z,496.48
2022-10-17T08:16:19.953Z,538.10
2022-10-17T08:18:47.553Z,497.00
2022-10-17T08:21:15.361Z,497.20
2022-10-17T08:23:43.163Z,514.50
2022-10-17T08:26:13.362Z,523.88
2022-10-17T08:28:41.663Z,500.23
2022-10-17T08:31:10.893Z,517.03
2022-10-17T08:33:40.227Z,514.58
2022-10-17T08:36:09.188Z,523.60
2022-10-17T08:38:43.033Z,490.63
2022-10-17T08:41:21.112Z,529.97
2022-10-17T08:44:06.476Z,528.35
2022-10-17T08:46:37.778Z,516.63
2022-10-17T08:49:13.413Z,496.65
2022-10-17T08:51:48.825Z,477.05
2022-10-17T08:54:20.894Z,521.63
2022-10-17T08:56:51.666Z,525.00
2022-10-17T08:59:24.342Z,539.53
2022-10-17T09:01:59.546Z,553.58
2022-10-17T09:05:01.556Z,518.58
2022-10-17T09:07:37.840Z,534.25
2022-10-17T09:10:12.514Z,529.55
2022-10-17T09:12:49.677Z,535.80
2022-10-17T09:15:53.791Z,502.73
2022-10-17T09:18:27.413Z,499.02
2022-10-17T09:21:00.992Z,495.75
2022-10-17T09:23:32.125Z,508.55
2022-10-17T09:26:01.847Z,477.92
2022-10-17T09:28:34.313Z,503.42
2022-10-17T09:31:04.849Z,515.78
2022-10-17T09:33:53.273Z,512.50
2022-10-17T09:36:29.053Z,501.90
2022-10-17T09:38:59.204Z,536.17
2022-10-17T09:41:49.989Z,510.23
2022-10-17T09:44:21.634Z,521.65
2022-10-17T09:47:14.917Z,484.88
2022-10-17T09:49:44.565Z,484.38
2022-10-17T09:52:16.094Z,473.10
2022-10-17T09:54:47.707Z,448.48
2022-10-17T09:57:17.368Z,480.27
2022-10-17T09:59:47.639Z,464.25
2022-10-17T10:02:21.622Z,459.98
2022-10-17T10:05:05.626Z,451.10
2022-10-17T10:07:40.055Z,447.33
2022-10-17T10:10:23.772Z,461.80
2022-10-17T10:13:05.848Z,458.25
2022-10-17T10:15:37.489Z,425.23
2022-10-17T10:21:11.760Z,474.70
2022-10-17T10:23:41.928Z,448.77
2022-10-17T10:26:25.329Z,439.10
2022-10-17T10:28:56.790Z,470.63
2022-10-17T10:31:31.524Z,434.50
2022-10-17T10:34:02.806Z,426.90
2022-10-17T10:36:54.526Z,453.60
2022-10-17T10:39:35.611Z,436.27
2022-10-17T10:42:06.233Z,442.25
2022-10-17T10:44:35.297Z,429.83
2022-10-17T10:47:24.986Z,434.25
2022-10-17T10:49:54.666Z,433.40
2022-10-17T10:52:32.511Z,444.15
2022-10-17T10:55:18.402Z,458.50
2022-10-17T10:57:48.455Z,436.85
2022-10-17T11:00:20.455Z,432.15
2022-10-17T11:02:56.428Z,459.15
2022-10-17T11:05:40.494Z,444.23
2022-10-17T11:08:15.998Z,448.15
2022-10-17T11:10:57.297Z,425.88
2022-10-17T11:13:28.852Z,430.17
2022-10-17T11:16:00.968Z,449.85
2022-10-17T11:18:34.302Z,444.45
2022-10-17T11:21:06.889Z,444.15
2022-10-17T11:23:41.303Z,442.10
2022-10-17T11:26:25.737Z,430.65
2022-10-17T11:28:53.937Z,433.55
2022-10-17T11:31:24.293Z,412.17
2022-10-17T11:33:58.046Z,438.70
2022-10-17T11:36:30.098Z,425.25
2022-10-17T11:39:01.702Z,420.60
2022-10-17T11:41:36.149Z,441.17
2022-10-17T11:44:12.704Z,434.88
2022-10-17T11:46:42.416Z,421.00
2022-10-17T11:49:19.188Z,430.88
2022-10-17T11:52:00.909Z,419.02
2022-10-17T11:54:35.683Z,439.92
2022-10-17T11:57:20.416Z,455.42
2022-10-17T12:00:03.966Z,444.30
2022-10-17T12:02:41.419Z,441.70
2022-10-17T12:05:21.064Z,427.35
2022-10-17T12:07:56.344Z,426.25
2022-10-17T12:10:36.578Z,438.70
2022-10-17T12:13:41.871Z,417.90
2022-10-17T12:16:39.906Z,428.30
2022-10-17T12:19:30.852Z,430.38
2022-10-17T12:22:01.507Z,409.42
2022-10-17T12:24:35.899Z,408.77
2022-10-17T12:27:32.639Z,416.88
2022-10-17T12:30:01.572Z,394.42
2022-10-17T12:32:46.875Z,411.30
2022-10-17T12:35:22.986Z,409.30
2022-10-17T12:38:24.188Z,402.10
2022-10-17T12:40:54.359Z,411.98
2022-10-17T12:43:40.567Z,408.88
2022-10-17T12:46:12.282Z,407.10
2022-10-17T12:49:37.020Z,418.77
2022-10-17T12:52:25.003Z,422.70
2022-10-17T12:55:15.080Z,409.77
2022-10-17T12:57:49.856Z,396.80
2022-10-17T13:00:22.519Z,414.13
2022-10-17T13:02:53.160Z,398.73
2022-10-17T13:05:29.400Z,403.88
2022-10-17T13:08:01.818Z,404.08
2022-10-17T13:10:33.162Z,399.08
2022-10-17T13:13:07.565Z,395.02
2022-10-17T13:15:37.969Z,401.23
2022-10-17T13:18:06.292Z,416.35
2022-10-17T13:20:34.156Z,419.15
2022-10-17T13:23:03.752Z,394.48
2022-10-17T13:25:33.240Z,413.02
2022-10-17T13:28:11.846Z,418.83
2022-10-17T13:30:39.665Z,397.23
2022-10-17T13:33:28.686Z,407.88
2022-10-17T13:36:00.374Z,404.95
2022-10-17T13:38:34.855Z,392.60
2022-10-17T13:41:30.558Z,428.25
2022-10-17T13:43:53.033Z,420.63
2022-10-17T13:46:39.122Z,398.40
2022-10-17T13:49:13.688Z,416.42
2022-10-17T13:51:45.456Z,394.92
2022-10-17T13:54:33.136Z,400.23
2022-10-17T13:57:01.959Z,389.10
2022-10-17T13:59:34.192Z,392.85
2022-10-17T14:02:02.642Z,387.02
2022-10-17T14:04:39.991Z,394.75
2022-10-17T14:07:25.383Z,376.45
2022-10-17T14:09:54.643Z,384.05
2022-10-17T14:12:23.308Z,389.25
2022-10-17T14:15:10.721Z,390.88
2022-10-17T14:17:39.281Z,392.65
2022-10-17T14:20:47.812Z,376.02
2022-10-17T14:23:21.074Z,381.85
2022-10-17T14:25:45.361Z,387.83
2022-10-17T14:28:15.814Z,379.35
2022-10-17T14:30:56.365Z,395.63
2022-10-17T14:33:29.441Z,395.25
2022-10-17T14:36:01.467Z,396.48
2022-10-17T14:38:30.656Z,386.75
2022-10-17T14:41:29.625Z,407.42
2022-10-17T14:43:55.188Z,384.88
2022-10-17T14:46:22.874Z,401.35
2022-10-17T14:48:55.641Z,409.13
2022-10-17T14:51:23.256Z,416.90
2022-10-17T14:54:05.813Z,403.25
2022-10-17T14:56:43.183Z,392.65
2022-10-17T14:59:12.597Z,393.73
2022-10-17T15:01:45.820Z,422.33
2022-10-17T15:04:13.397Z,402.05
2022-10-17T15:06:41.315Z,424.40
2022-10-17T15:09:10.324Z,408.02
2022-10-17T15:11:38.360Z,394.65
2022-10-17T15:14:07.301Z,394.48
2022-10-17T15:16:37.043Z,389.88
2022-10-17T15:19:04.648Z,418.95
2022-10-17T15:21:39.623Z,417.70
2022-10-17T15:24:09.565Z,404.00
2022-10-17T15:26:37.883Z,389.77
2022-10-17T15:29:07.243Z,423.95
2022-10-17T15:31:35.846Z,439.90
2022-10-17T15:34:03.494Z,458.13
2022-10-17T15:36:35.046Z,475.83
2022-10-17T15:39:02.921Z,462.08
2022-10-17T15:41:32.818Z,484.60
2022-10-17T15:44:01.193Z,466.65
2022-10-17T15:46:33.641Z,475.83
2022-10-17T15:49:04.277Z,501.23
2022-10-17T15:51:31.947Z,501.08
2022-10-17T15:54:01.393Z,495.52
2022-10-17T15:56:32.486Z,502.83
2022-10-17T15:59:00.120Z,509.40
2022-10-17T16:01:31.023Z,507.50
2022-10-17T16:03:59.330Z,510.38
2022-10-17T16:06:27.541Z,537.40
2022-10-17T16:08:55.146Z,516.08
2022-10-17T16:11:29.856Z,532.63
2022-10-17T16:13:59.987Z,527.42
2022-10-17T16:16:28.037Z,553.40
2022-10-17T16:18:57.439Z,564.70
2022-10-17T16:21:32.355Z,579.47
2022-10-17T16:24:00.536Z,560.35
2022-10-17T16:26:29.359Z,583.08
2022-10-17T16:28:58.052Z,585.88
2022-10-17T16:31:29.148Z,598.03
2022-10-17T16:33:59.636Z,594.05
2022-10-17T16:36:27.520Z,588.25
2022-10-17T16:38:55.244Z,585.63
2022-10-17T16:41:25.095Z,592.97
2022-10-17T16:43:55.667Z,596.20
2022-10-17T16:46:24.287Z,553.25
2022-10-17T16:48:52.253Z,554.90
2022-10-17T16:51:22.108Z,577.92
2022-10-17T16:53:54.173Z,569.83
2022-10-17T16:56:24.533Z,579.47
2022-10-17T16:58:52.588Z,558.97
2022-10-17T17:01:23.009Z,565.78
2022-10-17T17:03:51.811Z,545.63
2022-10-17T17:06:24.208Z,568.30
2022-10-17T17:08:51.950Z,583.92
2022-10-17T17:11:22.476Z,566.72
2022-10-17T17:13:50.244Z,597.85
2022-10-17T17:16:19.970Z,552.63
2022-10-17T17:18:49.090Z,571.13
2022-10-17T17:21:16.729Z,591.90
2022-10-17T17:23:45.899Z,579.90
2022-10-17T17:26:14.968Z,561.50
2022-10-17T17:28:43.729Z,587.95
2022-10-17T17:31:14.617Z,547.38
2022-10-17T17:33:43.410Z,557.47
2022-10-17T17:36:13.685Z,497.17
2022-10-17T17:38:42.078Z,558.70
2022-10-17T17:41:12.879Z,516.13
2022-10-17T17:43:40.561Z,531.75
2022-10-17T17:46:09.070Z,529.38
2022-10-17T17:48:38.180Z,526.97
2022-10-17T17:51:06.667Z,519.70
2022-10-17T17:53:34.910Z,513.22
2022-10-17T17:56:03.321Z,491.25
2022-10-17T17:58:32.694Z,514.17
2022-10-17T18:01:00.639Z,527.97
2022-10-17T18:03:28.829Z,520.28
2022-10-17T18:05:56.453Z,516.45
2022-10-17T18:08:24.048Z,505.40
2022-10-17T18:10:56.322Z,531.05
2022-10-17T18:13:23.908Z,498.02
2022-10-17T18:15:57.858Z,512.08
2022-10-17T18:18:26.020Z,505.88
2022-10-17T18:20:54.282Z,499.70
2022-10-17T18:23:22.044Z,503.85
2022-10-17T18:25:56.644Z,489.83
2022-10-17T18:28:24.662Z,493.90
2022-10-17T18:30:54.115Z,503.70
2022-10-17T18:33:22.114Z,488.08
2022-10-17T18:35:49.714Z,524.30
2022-10-17T18:38:17.299Z,489.60
2022-10-17T18:40:47.321Z,497.50
2022-10-17T18:43:18.203Z,470.98
2022-10-17T18:45:45.814Z,498.95
2022-10-17T18:48:14.780Z,507.25
2022-10-17T18:50:42.355Z,501.25
2022-10-17T18:53:09.953Z,486.40
2022-10-17T18:55:40.158Z,472.35
2022-10-17T18:58:07.804Z,514.67
2022-10-17T19:00:35.395Z,479.95
2022-10-17T19:03:04.102Z,502.30
2022-10-17T19:05:34.696Z,501.15
2022-10-17T19:08:02.300Z,504.50
2022-10-17T19:10:29.968Z,514.50
2022-10-17T19:12:57.703Z,500.10
2022-10-17T19:15:26.079Z,496.48
2022-10-17T19:17:53.904Z,519.88
2022-10-17T19:20:21.596Z,491.58
2022-10-17T19:22:50.561Z,522.47
2022-10-17T19:25:18.271Z,525.97
2022-10-17T19:27:45.943Z,500.48
2022-10-17T19:30:13.547Z,510.35
2022-10-17T19:32:41.917Z,503.00
2022-10-17T19:35:11.122Z,497.80
2022-10-17T19:37:38.951Z,512.22
2022-10-17T19:40:09.524Z,493.42
2022-10-17T19:42:37.179Z,494.50
2022-10-17T19:45:05.511Z,504.00
2022-10-17T19:47:33.577Z,488.05
2022-10-17T19:50:01.352Z,484.83
2022-10-17T19:52:29.368Z,484.15
2022-10-17T19:54:57.171Z,477.15
2022-10-17T19:57:26.314Z,487.98
2022-10-17T19:59:55.978Z,489.52
2022-10-17T20:02:23.878Z,497.02
2022-10-17T20:05:18.550Z,489.42
2022-10-17T20:08:07.251Z,496.80
2022-10-17T20:10:55.147Z,500.27
2022-10-17T20:13:45.673Z,472.55
2022-10-17T20:16:36.086Z,499.38
2022-10-17T20:19:24.048Z,503.13
2022-10-17T20:22:11.916Z,483.27
2022-10-17T20:24:59.808Z,486.73
2022-10-17T20:27:47.771Z,497.20
2022-10-17T20:30:37.095Z,469.55
2022-10-17T20:33:31.708Z,470.00
2022-10-17T20:36:23.176Z,512.92
2022-10-17T20:39:12.159Z,470.85
2022-10-17T20:42:00.109Z,483.58
2022-10-17T20:44:48.399Z,514.30
2022-10-17T20:47:47.167Z,482.58
2022-10-17T20:50:38.284Z,467.67
2022-10-17T20:53:36.882Z,490.10
2022-10-17T20:56:27.092Z,486.30
2022-10-17T20:59:16.862Z,479.67
2022-10-17T21:02:05.419Z,464.05
2022-10-17T21:04:54.721Z,489.63
2022-10-17T21:07:42.674Z,493.13
2022-10-17T21:10:35.502Z,492.70
2022-10-17T21:13:23.709Z,504.40
2022-10-17T21:16:13.463Z,488.52
2022-10-17T21:19:01.380Z,465.05
2022-10-17T21:21:50.976Z,462.70
2022-10-17T21:24:38.869Z,491.88
2022-10-17T21:27:26.987Z,462.23
2022-10-17T21:30:14.893Z,490.65
2022-10-17T21:33:03.072Z,475.55
2022-10-17T21:35:55.808Z,472.65
2022-10-17T21:38:46.211Z,496.30
2022-10-17T21:41:34.444Z,485.25
2022-10-17T21:44:24.443Z,480.77
2022-10-17T21:47:13.873Z,476.80
2022-10-17T21:50:01.747Z,487.08
2022-10-17T21:52:49.592Z,483.13
2022-10-17T21:55:39.049Z,509.52
2022-10-17T21:58:27.689Z,467.67
2022-10-17T22:01:17.719Z,499.48
2022-10-17T22:04:07.379Z,489.88
2022-10-17T22:06:55.301Z,482.98
2022-10-17T22:09:43.145Z,492.77
2022-10-17T22:12:32.798Z,458.95
2022-10-17T22:15:20.952Z,478.73
2022-10-17T22:18:08.898Z,488.27
2022-10-17T22:20:56.779Z,465.70
2022-10-17T22:23:46.765Z,492.10
2022-10-17T22:26:36.767Z,480.15
2022-10-17T22:29:25.991Z,492.27
2022-10-17T22:32:17.522Z,502.58
2022-10-17T22:35:09.337Z,502.23
2022-10-17T22:37:57.176Z,506.98
2022-10-17T22:40:45.850Z,480.38
2022-10-17T22:43:33.832Z,498.60
2022-10-17T22:46:23.130Z,488.60
2022-10-17T22:49:11.019Z,488.73
2022-10-17T22:51:58.867Z,491.40
2022-10-17T22:54:46.764Z,490.33
2022-10-17T22:57:34.630Z,478.42
2022-10-17T23:00:22.524Z,469.70
2022-10-17T23:03:11.719Z,492.65
2022-10-17T23:05:59.974Z,486.00
2022-10-17T23:08:48.085Z,477.38
2022-10-17T23:11:35.964Z,523.17
2022-10-17T23:14:23.821Z,478.40
2022-10-17T23:17:12.584Z,483.30
2022-10-17T23:20:01.768Z,478.55
2022-10-17T23:22:49.697Z,494.65
2022-10-17T23:25:37.547Z,505.98
2022-10-17T23:28:25.453Z,490.20
2022-10-17T23:31:15.610Z,500.27
2022-10-17T23:34:03.618Z,504.25
2022-10-17T23:36:54.051Z,481.15
2022-10-17T23:39:41.918Z,498.67
2022-10-17T23:42:29.906Z,500.85
2022-10-17T23:45:18.422Z,500.25
2022-10-17T23:48:07.099Z,468.35
2022-10-17T23:50:55.853Z,472.63
2022-10-17T23:53:45.125Z,465.45
2022-10-17T23:56:33.036Z,503.48
2022-10-17T23:59:20.920Z,485.67
